createdAt,value
2018-05-02T00:01:50.685Z,1.80
2018-05-02T00:04:16.643Z,2.07
2018-05-02T00:06:42.590Z,1.80
2018-05-02T00:09:09.304Z,1.57
2018-05-02T00:11:35.254Z,2.00
2018-05-02T00:14:01.208Z,1.93
2018-05-02T00:16:27.931Z,1.70
2018-05-02T00:18:53.879Z,1.93
2018-05-02T00:21:19.834Z,1.70
2018-05-02T00:23:46.521Z,2.03
2018-05-02T00:26:12.471Z,1.50
2018-05-02T00:28:38.451Z,1.60
2018-05-02T00:31:05.215Z,1.60
2018-05-02T00:33:31.899Z,2.10
2018-05-02T00:35:57.886Z,1.93
2018-05-02T00:38:23.850Z,1.97
2018-05-02T00:40:49.832Z,1.83
2018-05-02T00:43:15.811Z,1.70
2018-05-02T00:45:42.535Z,1.70
2018-05-02T00:48:08.510Z,1.80
2018-05-02T00:50:34.483Z,1.70
2018-05-02T00:53:00.467Z,2.00
2018-05-02T00:55:27.186Z,2.10
2018-05-02T00:57:53.147Z,2.00
2018-05-02T01:00:19.863Z,2.43
2018-05-02T01:02:45.860Z,1.57
2018-05-02T01:05:11.827Z,1.90
2018-05-02T01:07:38.551Z,1.97
2018-05-02T01:10:04.530Z,2.27
2018-05-02T01:12:30.507Z,2.17
2018-05-02T01:14:56.487Z,2.10
2018-05-02T01:17:22.471Z,1.97
2018-05-02T01:19:48.442Z,2.10
2018-05-02T01:22:14.438Z,2.17
2018-05-02T01:24:41.155Z,1.83
2018-05-02T01:27:07.131Z,2.20
2018-05-02T01:29:33.169Z,1.70
2018-05-02T01:31:59.139Z,2.53
2018-05-02T01:34:25.103Z,2.00
2018-05-02T01:36:51.084Z,1.63
2018-05-02T01:39:17.047Z,1.60
2018-05-02T01:41:43.015Z,2.07
2018-05-02T01:44:09.727Z,1.87
2018-05-02T01:46:35.706Z,2.00
2018-05-02T01:49:14.922Z,1.70
2018-05-02T01:51:41.643Z,1.53
2018-05-02T01:54:07.608Z,2.03
2018-05-02T01:56:33.575Z,1.80
2018-05-02T01:59:00.279Z,2.13
2018-05-02T02:01:26.261Z,2.00
2018-05-02T02:03:52.975Z,1.70
2018-05-02T02:06:18.951Z,2.33
2018-05-02T02:08:45.664Z,1.73
2018-05-02T02:11:11.636Z,2.20
2018-05-02T02:13:37.594Z,2.00
2018-05-02T02:16:03.571Z,2.13
2018-05-02T02:18:29.544Z,2.10
2018-05-02T02:20:56.263Z,2.20
2018-05-02T02:23:22.247Z,2.17
2018-05-02T02:25:48.218Z,2.20
2018-05-02T02:28:14.191Z,2.20
2018-05-02T02:30:40.175Z,2.17
2018-05-02T02:33:06.154Z,1.90
2018-05-02T02:35:32.150Z,2.53
2018-05-02T02:37:58.235Z,2.33
2018-05-02T02:40:24.211Z,2.43
2018-05-02T02:42:50.198Z,2.40
2018-05-02T02:45:16.194Z,2.30
2018-05-02T02:47:42.162Z,2.33
2018-05-02T02:50:08.141Z,2.30
2018-05-02T02:52:34.122Z,2.00
2018-05-02T02:55:00.108Z,2.03
2018-05-02T02:57:26.105Z,2.30
2018-05-02T02:59:52.083Z,2.03
2018-05-02T03:02:18.073Z,2.10
2018-05-02T03:04:44.047Z,2.07
2018-05-02T03:07:10.031Z,2.20
2018-05-02T03:09:36.037Z,1.90
2018-05-02T03:12:02.027Z,2.10
2018-05-02T03:14:28.749Z,2.07
2018-05-02T03:16:54.739Z,1.90
2018-05-02T03:19:20.802Z,1.90
2018-05-02T03:21:46.836Z,2.53
2018-05-02T03:24:12.765Z,2.00
2018-05-02T03:26:38.759Z,1.90
2018-05-02T03:29:05.485Z,2.03
2018-05-02T03:31:31.464Z,2.43
2018-05-02T03:33:57.453Z,2.00
2018-05-02T03:36:23.434Z,2.07
2018-05-02T03:38:49.407Z,2.20
2018-05-02T03:41:15.375Z,2.00
2018-05-02T03:43:41.342Z,2.27
2018-05-02T03:46:07.371Z,2.30
2018-05-02T03:48:34.095Z,2.07
2018-05-02T03:51:01.544Z,1.73
2018-05-02T03:53:27.515Z,2.10
2018-05-02T03:55:54.225Z,2.13
2018-05-02T03:58:20.203Z,2.13
2018-05-02T04:00:59.177Z,1.90
2018-05-02T04:03:37.595Z,2.13
2018-05-02T04:06:12.810Z,2.43
2018-05-02T04:08:38.862Z,1.93
2018-05-02T04:11:05.579Z,2.00
2018-05-02T04:13:31.562Z,1.80
2018-05-02T04:15:58.267Z,1.60
2018-05-02T04:18:24.243Z,1.50
2018-05-02T04:20:50.950Z,1.50
2018-05-02T04:23:16.931Z,1.80
2018-05-02T04:25:43.687Z,1.90
2018-05-02T04:28:10.399Z,1.87
2018-05-02T04:30:37.127Z,1.97
2018-05-02T04:33:03.131Z,1.70
2018-05-02T04:35:29.125Z,1.97
2018-05-02T04:37:55.143Z,1.97
2018-05-02T04:40:21.087Z,1.93
2018-05-02T04:42:47.115Z,2.37
2018-05-02T04:45:13.091Z,2.17
2018-05-02T04:47:39.811Z,2.30
2018-05-02T04:50:05.798Z,2.20
2018-05-02T04:52:31.780Z,2.23
2018-05-02T04:54:57.774Z,2.23
2018-05-02T04:57:23.756Z,3.00
2018-05-02T04:59:49.735Z,2.20
2018-05-02T05:02:15.743Z,1.93
2018-05-02T05:04:41.722Z,2.63
2018-05-02T05:07:07.694Z,2.20
2018-05-02T05:09:33.679Z,2.47
2018-05-02T05:11:59.651Z,2.10
2018-05-02T05:14:25.626Z,1.80
2018-05-02T05:16:52.358Z,2.37
2018-05-02T05:19:18.330Z,2.40
2018-05-02T05:21:44.314Z,3.10
2018-05-02T05:24:10.297Z,2.07
2018-05-02T05:26:37.023Z,2.13
2018-05-02T05:29:03.000Z,2.20
2018-05-02T05:31:28.988Z,2.40
2018-05-02T05:33:54.972Z,2.20
2018-05-02T05:36:20.946Z,2.10
2018-05-02T05:38:46.938Z,2.20
2018-05-02T05:41:13.083Z,2.20
2018-05-02T05:43:39.114Z,2.17
2018-05-02T05:46:05.034Z,2.10
2018-05-02T05:48:30.998Z,2.70
2018-05-02T05:50:56.951Z,2.33
2018-05-02T05:53:22.919Z,2.30
2018-05-02T05:55:49.633Z,2.27
2018-05-02T05:58:15.602Z,2.00
2018-05-02T06:00:41.571Z,2.53
2018-05-02T06:03:07.539Z,1.93
2018-05-02T06:05:33.516Z,2.37
2018-05-02T06:08:00.231Z,2.70
2018-05-02T06:10:26.243Z,2.20
2018-05-02T06:12:52.215Z,2.53
2018-05-02T06:15:18.183Z,2.30
2018-05-02T06:17:44.895Z,2.50
2018-05-02T06:20:10.862Z,2.50
2018-05-02T06:22:37.574Z,2.10
2018-05-02T06:25:03.563Z,1.90
2018-05-02T06:27:29.547Z,2.60
2018-05-02T06:29:55.519Z,2.20
2018-05-02T06:32:22.236Z,2.03
2018-05-02T06:34:48.214Z,2.20
2018-05-02T06:37:14.197Z,2.53
2018-05-02T06:39:40.170Z,2.50
2018-05-02T06:42:06.911Z,2.97
2018-05-02T06:44:32.875Z,2.20
2018-05-02T06:46:58.868Z,3.20
2018-05-02T06:49:24.839Z,2.67
2018-05-02T06:51:50.807Z,3.00
2018-05-02T06:54:16.788Z,3.57
2018-05-02T06:56:42.748Z,2.90
2018-05-02T06:59:08.739Z,7.73
2018-05-02T07:01:34.711Z,2.37
2018-05-02T07:04:01.472Z,2.13
2018-05-02T07:06:27.443Z,2.30
2018-05-02T07:08:53.424Z,2.13
2018-05-02T07:11:20.123Z,1.83
2018-05-02T07:13:46.096Z,2.60
2018-05-02T07:16:12.054Z,2.60
2018-05-02T07:18:38.775Z,2.13
2018-05-02T07:21:04.739Z,2.10
2018-05-02T07:23:31.455Z,2.40
2018-05-02T07:25:57.423Z,2.30
2018-05-02T07:28:24.151Z,2.17
2018-05-02T07:30:50.111Z,2.43
2018-05-02T07:33:16.831Z,1.87
2018-05-02T07:35:42.806Z,2.30
2018-05-02T07:38:09.532Z,2.07
2018-05-02T07:40:35.504Z,2.50
2018-05-02T07:43:01.479Z,2.77
2018-05-02T07:45:27.456Z,2.10
2018-05-02T07:47:54.164Z,2.27
2018-05-02T07:50:20.144Z,2.60
2018-05-02T07:52:46.858Z,2.17
2018-05-02T07:55:12.822Z,2.20
2018-05-02T07:57:39.531Z,3.33
2018-05-02T08:00:05.500Z,3.30
2018-05-02T08:02:32.211Z,2.50
2018-05-02T08:04:58.182Z,2.00
2018-05-02T08:07:24.142Z,2.40
2018-05-02T08:09:50.864Z,2.60
2018-05-02T08:12:16.840Z,1.80
2018-05-02T08:14:42.810Z,2.17
2018-05-02T08:17:09.520Z,2.10
2018-05-02T08:19:36.232Z,2.23
2018-05-02T08:22:02.238Z,2.10
2018-05-02T08:24:28.187Z,2.30
2018-05-02T08:26:54.193Z,2.17
2018-05-02T08:29:20.882Z,1.73
2018-05-02T08:31:46.836Z,2.10
2018-05-02T08:34:12.803Z,2.10
2018-05-02T08:36:38.774Z,2.03
2018-05-02T08:39:04.735Z,2.27
2018-05-02T08:41:30.706Z,2.23
2018-05-02T08:43:56.678Z,2.40
2018-05-02T08:46:22.655Z,2.40
2018-05-02T08:48:49.355Z,2.30
2018-05-02T08:51:15.323Z,2.80
2018-05-02T08:53:41.295Z,2.30
2018-05-02T08:56:07.262Z,2.10
2018-05-02T08:58:33.231Z,2.00
2018-05-02T09:00:59.204Z,2.47
2018-05-02T09:03:25.171Z,2.13
2018-05-02T09:05:51.243Z,2.20
2018-05-02T09:08:17.198Z,2.30
2018-05-02T09:10:43.908Z,1.93
2018-05-02T09:13:09.879Z,2.97
2018-05-02T09:15:36.646Z,2.43
2018-05-02T09:18:02.584Z,4.37
2018-05-02T09:20:28.555Z,3.90
2018-05-02T09:22:54.525Z,2.73
2018-05-02T09:25:21.247Z,3.03
2018-05-02T09:27:47.220Z,2.47
2018-05-02T09:30:13.924Z,2.37
2018-05-02T09:32:39.896Z,2.83
2018-05-02T09:35:05.892Z,2.23
2018-05-02T09:37:31.875Z,2.57
2018-05-02T09:39:58.595Z,2.50
2018-05-02T09:42:24.570Z,2.70
2018-05-02T09:44:51.342Z,2.77
2018-05-02T09:47:17.324Z,4.10
2018-05-02T09:49:43.302Z,3.87
2018-05-02T09:52:09.370Z,3.87
2018-05-02T09:54:35.264Z,3.97
2018-05-02T09:57:02.028Z,4.30
2018-05-02T09:59:28.018Z,4.10
2018-05-02T10:01:53.999Z,3.43
2018-05-02T10:04:19.980Z,4.30
2018-05-02T10:06:45.982Z,4.70
2018-05-02T10:09:11.959Z,4.20
2018-05-02T10:11:37.943Z,4.33
2018-05-02T10:14:03.946Z,4.13
2018-05-02T10:16:30.670Z,4.40
2018-05-02T10:18:56.664Z,4.83
2018-05-02T10:21:22.639Z,4.30
2018-05-02T10:23:48.628Z,4.27
2018-05-02T10:26:14.648Z,5.30
2018-05-02T10:28:40.600Z,5.30
2018-05-02T10:31:06.586Z,4.60
2018-05-02T10:33:32.558Z,4.80
2018-05-02T10:35:59.275Z,4.83
2018-05-02T10:38:25.268Z,4.90
2018-05-02T10:40:51.242Z,4.87
2018-05-02T10:43:24.367Z,5.20
2018-05-02T10:45:50.335Z,5.50
2018-05-02T10:48:16.323Z,4.53
2018-05-02T10:50:42.302Z,4.20
2018-05-02T10:53:08.287Z,5.80
2018-05-02T10:55:34.259Z,4.40
2018-05-02T10:58:00.260Z,3.80
2018-05-02T11:00:26.236Z,4.60
2018-05-02T11:02:52.228Z,3.67
2018-05-02T11:05:18.219Z,3.93
2018-05-02T11:07:44.199Z,3.40
2018-05-02T11:10:10.171Z,3.80
2018-05-02T11:12:36.900Z,4.40
2018-05-02T11:15:02.895Z,4.53
2018-05-02T11:17:28.874Z,5.10
2018-05-02T11:19:55.603Z,4.27
2018-05-02T11:22:21.573Z,3.97
2018-05-02T11:24:48.312Z,4.07
2018-05-02T11:27:14.323Z,4.87
2018-05-02T11:29:40.311Z,4.27
2018-05-02T11:32:06.294Z,4.20
2018-05-02T11:34:32.286Z,4.40
2018-05-02T11:36:58.271Z,4.50
2018-05-02T11:39:24.255Z,3.97
2018-05-02T11:41:50.245Z,4.10
2018-05-02T11:44:16.236Z,3.60
2018-05-02T11:46:42.217Z,3.67
2018-05-02T11:49:08.199Z,3.60
2018-05-02T11:51:34.179Z,4.10
2018-05-02T11:54:00.164Z,4.33
2018-05-02T11:56:26.143Z,4.50
2018-05-02T11:58:52.127Z,5.00
2018-05-02T12:01:18.095Z,5.07
2018-05-02T12:03:44.088Z,5.90
2018-05-02T12:06:10.811Z,4.20
2018-05-02T12:08:36.783Z,4.40
2018-05-02T12:11:02.763Z,3.70
2018-05-02T12:13:28.744Z,5.03
2018-05-02T12:15:55.462Z,4.30
2018-05-02T12:18:21.455Z,4.33
2018-05-02T12:20:47.440Z,4.30
2018-05-02T12:23:13.427Z,4.77
2018-05-02T12:25:39.411Z,4.43
2018-05-02T12:28:06.931Z,4.70
2018-05-02T12:30:32.914Z,4.20
2018-05-02T12:32:58.896Z,4.30
2018-05-02T12:35:24.896Z,4.17
2018-05-02T12:37:50.847Z,4.60
2018-05-02T12:40:17.550Z,4.70
2018-05-02T12:42:44.271Z,5.00
2018-05-02T12:45:10.238Z,4.63
2018-05-02T12:47:36.199Z,4.37
2018-05-02T12:50:02.175Z,4.27
2018-05-02T12:52:28.134Z,5.20
2018-05-02T12:54:54.098Z,4.40
2018-05-02T12:57:20.059Z,4.50
2018-05-02T12:59:46.771Z,5.00
2018-05-02T13:02:12.731Z,4.70
2018-05-02T13:04:38.708Z,6.40
2018-05-02T13:07:04.698Z,4.80
2018-05-02T13:09:30.667Z,4.50
2018-05-02T13:11:56.646Z,5.27
2018-05-02T13:14:22.616Z,5.77
2018-05-02T13:16:49.329Z,4.93
2018-05-02T13:19:15.291Z,3.93
2018-05-02T13:21:41.255Z,4.40
2018-05-02T13:24:07.218Z,3.93
2018-05-02T13:26:33.191Z,3.90
2018-05-02T13:28:59.158Z,5.07
2018-05-02T13:31:25.130Z,4.80
2018-05-02T13:33:51.095Z,3.93
2018-05-02T13:36:17.091Z,5.37
2018-05-02T13:38:43.070Z,4.37
2018-05-02T13:41:09.055Z,4.10
2018-05-02T13:43:35.027Z,4.80
2018-05-02T13:46:01.023Z,5.00
2018-05-02T13:48:27.003Z,3.77
2018-05-02T13:50:52.987Z,3.77
2018-05-02T13:53:18.974Z,4.00
2018-05-02T13:55:44.959Z,3.50
2018-05-02T13:58:10.940Z,3.93
2018-05-02T14:00:36.922Z,3.47
2018-05-02T14:03:02.910Z,3.60
2018-05-02T14:05:28.891Z,3.40
2018-05-02T14:07:54.871Z,3.30
2018-05-02T14:10:20.847Z,3.87
2018-05-02T14:12:46.840Z,2.90
2018-05-02T14:15:12.812Z,3.60
2018-05-02T14:17:39.554Z,3.90
2018-05-02T14:20:06.287Z,3.00
2018-05-02T14:22:32.263Z,2.80
2018-05-02T14:24:58.251Z,3.10
2018-05-02T14:27:24.231Z,3.10
2018-05-02T14:29:50.208Z,3.07
2018-05-02T14:32:16.195Z,3.20
2018-05-02T14:34:42.186Z,3.00
2018-05-02T14:37:08.928Z,3.23
2018-05-02T14:39:34.907Z,3.30
2018-05-02T14:42:01.690Z,3.13
2018-05-02T14:44:27.668Z,3.43
2018-05-02T14:46:53.651Z,3.70
2018-05-02T14:49:19.622Z,3.70
2018-05-02T14:51:45.604Z,3.23
2018-05-02T14:54:12.327Z,3.53
2018-05-02T14:56:38.300Z,3.73
2018-05-02T14:59:04.294Z,3.90
2018-05-02T15:01:30.323Z,3.60
2018-05-02T15:03:56.324Z,3.67
2018-05-02T15:06:22.311Z,3.70
2018-05-02T15:08:48.296Z,3.73
2018-05-02T15:11:14.279Z,3.50
2018-05-02T15:13:40.259Z,3.97
2018-05-02T15:16:06.248Z,3.90
2018-05-02T15:18:32.227Z,4.20
2018-05-02T15:20:58.271Z,4.77
2018-05-02T15:23:24.267Z,4.80
2018-05-02T15:25:50.988Z,6.30
2018-05-02T15:28:16.977Z,5.00
2018-05-02T15:30:42.955Z,5.40
2018-05-02T15:33:09.699Z,5.30
2018-05-02T15:35:35.692Z,4.77
2018-05-02T15:38:02.429Z,4.93
2018-05-02T15:40:29.152Z,4.73
2018-05-02T15:42:55.168Z,4.97
2018-05-02T15:45:21.144Z,6.20
2018-05-02T15:47:47.126Z,4.77
2018-05-02T15:50:13.119Z,4.83
2018-05-02T15:52:39.099Z,5.20
2018-05-02T15:55:05.107Z,5.43
2018-05-02T15:57:31.834Z,4.40
2018-05-02T15:59:57.819Z,5.37
2018-05-02T16:02:23.790Z,5.97
2018-05-02T16:04:49.783Z,5.93
2018-05-02T16:07:15.755Z,5.40
2018-05-02T16:09:41.731Z,7.00
2018-05-02T16:12:08.515Z,5.97
2018-05-02T16:14:34.559Z,5.87
2018-05-02T16:17:00.540Z,4.90
2018-05-02T16:19:26.538Z,4.47
2018-05-02T16:21:52.514Z,4.90
2018-05-02T16:24:18.507Z,6.10
2018-05-02T16:26:44.483Z,6.50
2018-05-02T16:29:11.286Z,4.83
2018-05-02T16:31:37.267Z,5.10
2018-05-02T16:34:03.255Z,5.30
2018-05-02T16:36:29.226Z,4.73
2018-05-02T16:38:55.203Z,5.57
2018-05-02T16:41:21.291Z,5.13
2018-05-02T16:43:47.308Z,4.43
2018-05-02T16:46:13.353Z,5.50
2018-05-02T16:48:39.327Z,5.50
2018-05-02T16:51:06.115Z,4.80
2018-05-02T16:53:32.095Z,5.67
2018-05-02T16:55:58.814Z,4.60
2018-05-02T16:58:24.814Z,5.50
2018-05-02T17:00:51.527Z,4.77
2018-05-02T17:03:17.547Z,4.40
2018-05-02T17:05:50.415Z,4.40
2018-05-02T17:08:16.444Z,4.07
2018-05-02T17:10:42.483Z,4.60
2018-05-02T17:13:08.459Z,3.70
2018-05-02T17:15:34.451Z,4.30
2018-05-02T17:18:00.422Z,4.07
2018-05-02T17:20:26.399Z,4.80
2018-05-02T17:22:53.117Z,4.57
2018-05-02T17:25:19.115Z,3.60
2018-05-02T17:27:45.091Z,4.40
2018-05-02T17:30:11.098Z,4.33
2018-05-02T17:32:37.066Z,4.13
2018-05-02T17:35:03.847Z,4.67
2018-05-02T17:37:30.631Z,5.30
2018-05-02T17:39:56.599Z,4.30
2018-05-02T17:42:22.566Z,4.20
2018-05-02T17:44:49.286Z,3.50
2018-05-02T17:47:15.265Z,3.73
2018-05-02T17:49:42.019Z,4.43
2018-05-02T17:52:08.743Z,4.37
2018-05-02T17:54:34.715Z,4.80
2018-05-02T17:57:00.686Z,4.77
2018-05-02T17:59:26.666Z,4.97
2018-05-02T18:01:53.375Z,5.47
2018-05-02T18:04:19.343Z,5.70
2018-05-02T18:06:45.318Z,4.63
2018-05-02T18:09:11.395Z,3.87
2018-05-02T18:11:37.368Z,4.73
2018-05-02T18:14:04.157Z,3.73
2018-05-02T18:16:30.188Z,4.67
2018-05-02T18:18:56.099Z,4.80
2018-05-02T18:21:22.081Z,4.20
2018-05-02T18:23:48.055Z,4.30
2018-05-02T18:26:14.774Z,3.60
2018-05-02T18:28:40.748Z,3.70
2018-05-02T18:31:07.471Z,3.63
2018-05-02T18:33:33.440Z,3.90
2018-05-02T18:36:00.163Z,3.30
2018-05-02T18:38:26.162Z,3.40
2018-05-02T18:40:52.135Z,3.40
2018-05-02T18:43:18.149Z,3.67
2018-05-02T18:45:44.154Z,3.80
2018-05-02T18:48:10.115Z,4.40
2018-05-02T18:50:36.084Z,4.10
2018-05-02T18:53:02.800Z,4.13
2018-05-02T18:55:28.778Z,4.33
2018-05-02T18:57:55.494Z,3.87
2018-05-02T19:00:21.463Z,4.87
2018-05-02T19:02:48.171Z,4.00
2018-05-02T19:05:14.143Z,4.20
2018-05-02T19:07:40.868Z,5.10
2018-05-02T19:10:06.929Z,5.30
2018-05-02T19:12:33.667Z,4.30
2018-05-02T19:15:00.371Z,3.93
2018-05-02T19:17:26.377Z,3.43
2018-05-02T19:22:56.715Z,3.50
2018-05-02T19:25:28.790Z,4.00
2018-05-02T19:27:54.795Z,4.90
2018-05-02T19:30:20.813Z,4.43
2018-05-02T19:32:53.786Z,4.50
2018-05-02T19:35:19.774Z,3.80
2018-05-02T19:37:45.750Z,4.67
2018-05-02T19:40:17.930Z,4.17
2018-05-02T19:42:50.247Z,3.97
2018-05-02T19:45:16.182Z,3.77
2018-05-02T19:47:42.910Z,3.70
2018-05-02T19:50:08.919Z,3.50
2018-05-02T19:52:40.999Z,3.13
2018-05-02T19:55:07.715Z,3.77
2018-05-02T19:57:33.703Z,3.50
2018-05-02T19:59:59.688Z,3.27
2018-05-02T20:02:31.667Z,3.00
2018-05-02T20:04:57.647Z,3.47
2018-05-02T20:07:29.729Z,4.10
2018-05-02T20:10:01.960Z,2.80
2018-05-02T20:12:34.068Z,3.10
2018-05-02T20:15:00.960Z,2.80
2018-05-02T20:17:27.684Z,2.80
2018-05-02T20:19:53.668Z,2.57
2018-05-02T20:22:19.772Z,3.57
2018-05-02T20:24:45.755Z,2.60
2018-05-02T20:27:11.736Z,3.60
2018-05-02T20:29:37.711Z,3.00
2018-05-02T20:32:03.694Z,3.80
2018-05-02T20:34:29.724Z,4.00
2018-05-02T20:36:55.726Z,3.60
2018-05-02T20:39:21.707Z,3.43
2018-05-02T20:41:47.683Z,3.90
2018-05-02T20:44:13.679Z,3.73
2018-05-02T20:46:39.658Z,4.57
2018-05-02T20:49:06.387Z,3.50
2018-05-02T20:51:33.118Z,3.87
2018-05-02T20:53:59.109Z,3.70
2018-05-02T20:56:25.079Z,3.70
2018-05-02T20:58:51.058Z,4.03
2018-05-02T21:01:17.774Z,4.37
2018-05-02T21:03:43.751Z,5.90
2018-05-02T21:06:10.471Z,5.70
2018-05-02T21:08:36.454Z,4.20
2018-05-02T21:11:02.434Z,3.40
2018-05-02T21:13:28.406Z,4.07
2018-05-02T21:15:55.123Z,3.73
2018-05-02T21:18:21.101Z,3.60
2018-05-02T21:20:47.079Z,3.93
2018-05-02T21:23:13.062Z,3.50
2018-05-02T21:25:39.788Z,4.37
2018-05-02T21:28:06.522Z,3.70
2018-05-02T21:30:32.506Z,3.53
2018-05-02T21:32:58.482Z,3.30
2018-05-02T21:35:24.472Z,3.43
2018-05-02T21:37:51.194Z,3.37
2018-05-02T21:40:17.175Z,3.60
2018-05-02T21:42:43.148Z,3.40
2018-05-02T21:45:09.143Z,3.37
2018-05-02T21:47:35.120Z,3.30
2018-05-02T21:50:01.109Z,4.00
2018-05-02T21:52:27.082Z,4.00
2018-05-02T21:54:53.066Z,3.30
2018-05-02T21:57:19.791Z,4.00
2018-05-02T21:59:47.302Z,3.20
2018-05-02T22:02:13.243Z,3.70
2018-05-02T22:04:39.231Z,2.97
2018-05-02T22:07:05.207Z,3.07
2018-05-02T22:09:31.195Z,3.50
2018-05-02T22:11:57.180Z,3.73
2018-05-02T22:14:23.167Z,3.50
2018-05-02T22:16:49.155Z,3.67
2018-05-02T22:19:15.139Z,3.70
2018-05-02T22:21:41.112Z,3.60
2018-05-02T22:24:07.095Z,3.60
2018-05-02T22:26:33.075Z,3.73
2018-05-02T22:28:59.807Z,4.00
2018-05-02T22:31:26.543Z,3.63
2018-05-02T22:33:52.519Z,4.07
2018-05-02T22:36:18.510Z,4.07
2018-05-02T22:38:44.491Z,4.13
2018-05-02T22:41:10.544Z,3.83
2018-05-02T22:43:36.518Z,3.83
2018-05-02T22:46:02.515Z,4.00
2018-05-02T22:48:28.493Z,4.77
2018-05-02T22:50:54.477Z,4.17
2018-05-02T22:53:20.451Z,4.43
2018-05-02T22:55:46.434Z,4.53
2018-05-02T22:58:13.151Z,4.40
2018-05-02T23:00:39.135Z,4.40
2018-05-02T23:03:05.131Z,5.50
2018-05-02T23:05:31.109Z,4.73
2018-05-02T23:07:57.087Z,5.73
2018-05-02T23:10:23.075Z,4.53
2018-05-02T23:12:49.046Z,5.33
2018-05-02T23:15:15.039Z,4.83
2018-05-02T23:17:41.002Z,4.40
2018-05-02T23:20:06.996Z,4.97
2018-05-02T23:22:32.987Z,5.50
2018-05-02T23:24:58.963Z,4.73
2018-05-02T23:27:25.682Z,4.73
2018-05-02T23:29:51.647Z,5.23
2018-05-02T23:32:18.371Z,4.60
2018-05-02T23:34:44.346Z,4.00
2018-05-02T23:37:11.071Z,4.33
2018-05-02T23:39:37.043Z,4.27
2018-05-02T23:42:03.033Z,4.47
2018-05-02T23:44:29.008Z,4.20
2018-05-02T23:46:54.988Z,4.80
2018-05-02T23:49:20.967Z,6.03
2018-05-02T23:51:47.686Z,4.60
2018-05-02T23:54:13.770Z,4.30
2018-05-02T23:56:39.747Z,5.00
2018-05-02T23:59:05.714Z,4.33
